Riverdale, Georgia
Current Conditions -  °F | °C
As of 5:52 AM on Thursday 23 Oct 2014 (Local Time) from KATL Reporting Station
Clear Clear  
Wind Chill:   Ceiling: Unl
Heat Index:   Visibility: 10mi
Dew Point:   Wind: 6mph
Humidity: 83%   Direction: 340°NNW
Pressure: 30.1"   Gusts: NA
Location:  33.57°N, 84.41°W
Report Text: KATL 230952Z 34005KT 10SM CLR 08/05 A3010 RMK AO2 SLP192 T00780050 $
Loading
Personal Weather Stations






























Interactive Weather Map
Tropical Storm Tracking
New forecast layout! Learn more

10-Day Weather Forecast

Advertisements
Track Severe Weather on mobile